createdAt,value
2022-08-22T00:02:46.133Z,44.55
2022-08-22T00:03:16.084Z,44.22
2022-08-22T00:08:12.541Z,43.33
2022-08-22T00:13:22.803Z,44.47
2022-08-22T00:18:31.949Z,43.55
2022-08-22T00:23:42.890Z,43.90
2022-08-22T00:28:51.262Z,43.50
2022-08-22T00:34:02.961Z,43.75
2022-08-22T00:39:14.955Z,43.25
2022-08-22T00:44:47.480Z,43.35
2022-08-22T00:50:10.506Z,43.95
2022-08-22T00:55:39.289Z,43.90
2022-08-22T01:00:47.969Z,43.92
2022-08-22T01:06:07.188Z,43.45
2022-08-22T01:11:27.143Z,43.95
2022-08-22T01:16:54.738Z,43.33
2022-08-22T01:22:25.949Z,43.38
2022-08-22T01:28:16.156Z,45.53
2022-08-22T01:33:53.941Z,43.75
2022-08-22T01:39:26.715Z,43.55
2022-08-22T01:44:55.408Z,43.35
2022-08-22T01:50:03.457Z,43.05
2022-08-22T01:55:14.378Z,43.50
2022-08-22T02:00:19.997Z,43.53
2022-08-22T02:05:48.228Z,43.08
2022-08-22T02:11:00.611Z,43.67
2022-08-22T02:16:11.766Z,44.17
2022-08-22T02:21:22.025Z,42.72
2022-08-22T02:26:30.538Z,43.08
2022-08-22T02:31:42.534Z,44.50
2022-08-22T02:36:51.079Z,43.33
2022-08-22T02:41:59.995Z,43.50
2022-08-22T02:47:11.001Z,42.72
2022-08-22T02:52:18.292Z,43.60
2022-08-22T02:57:31.560Z,43.45
2022-08-22T03:02:47.720Z,43.63
2022-08-22T03:07:58.071Z,43.08
2022-08-22T03:13:10.334Z,43.17
2022-08-22T03:18:22.029Z,43.67
2022-08-22T03:23:35.447Z,43.80
2022-08-22T03:28:59.471Z,43.05
2022-08-22T03:34:22.382Z,43.63
2022-08-22T03:39:43.198Z,42.85
2022-08-22T03:45:23.329Z,43.08
2022-08-22T03:50:54.476Z,43.95
2022-08-22T03:56:25.590Z,42.85
2022-08-22T04:01:56.410Z,42.72
2022-08-22T04:07:35.079Z,43.30
2022-08-22T04:13:03.699Z,42.53
2022-08-22T04:18:25.296Z,46.70
2022-08-22T04:23:58.059Z,43.97
2022-08-22T04:29:06.725Z,43.58
2022-08-22T04:34:20.594Z,43.22
2022-08-22T04:39:35.697Z,43.08
2022-08-22T04:44:43.931Z,43.08
2022-08-22T04:49:52.925Z,42.88
2022-08-22T04:55:04.462Z,42.60
2022-08-22T05:00:10.429Z,43.15
2022-08-22T05:05:18.521Z,43.13
2022-08-22T05:10:25.208Z,42.85
2022-08-22T05:15:33.889Z,42.65
2022-08-22T05:20:41.131Z,42.85
2022-08-22T05:25:46.780Z,43.13
2022-08-22T05:30:51.309Z,42.55
2022-08-22T05:35:59.316Z,43.75
2022-08-22T05:41:06.577Z,42.92
2022-08-22T05:46:27.086Z,43.58
2022-08-22T05:51:40.549Z,43.00
2022-08-22T05:56:48.280Z,42.28
2022-08-22T06:02:03.184Z,42.75
2022-08-22T06:07:16.626Z,42.58
2022-08-22T06:12:27.352Z,43.33
2022-08-22T06:17:36.615Z,43.08
2022-08-22T06:22:46.874Z,44.78
2022-08-22T06:27:52.637Z,44.00
2022-08-22T06:33:12.330Z,43.65
2022-08-22T06:38:17.861Z,43.53
2022-08-22T06:43:21.839Z,43.50
2022-08-22T06:48:28.190Z,44.67
2022-08-22T06:53:42.362Z,44.13
2022-08-22T06:58:53.851Z,43.92
2022-08-22T07:04:01.455Z,45.15
2022-08-22T07:09:07.377Z,43.70
2022-08-22T07:14:12.318Z,44.00
2022-08-22T07:19:25.555Z,44.13
2022-08-22T07:24:32.912Z,43.75
2022-08-22T07:29:47.536Z,44.45
2022-08-22T07:35:07.276Z,45.75
2022-08-22T07:40:23.353Z,45.10
2022-08-22T07:45:36.174Z,44.67
2022-08-22T07:50:47.346Z,43.90
2022-08-22T07:55:53.725Z,44.03
2022-08-22T08:00:57.911Z,44.72
2022-08-22T08:06:02.225Z,44.45
2022-08-22T08:11:10.595Z,44.47
2022-08-22T08:16:20.698Z,44.60
2022-08-22T08:21:30.563Z,44.13
2022-08-22T08:27:29.039Z,45.83
2022-08-22T08:32:37.391Z,44.20
2022-08-22T08:37:46.432Z,44.55
2022-08-22T08:43:20.973Z,44.67
2022-08-22T08:48:58.467Z,44.58
2022-08-22T08:54:32.959Z,44.97
2022-08-22T08:59:50.605Z,45.03
2022-08-22T09:05:44.426Z,45.08
2022-08-22T09:11:30.593Z,44.20
2022-08-22T09:16:51.785Z,44.58
2022-08-22T09:22:19.637Z,45.28
2022-08-22T09:27:32.087Z,45.28
2022-08-22T09:32:45.136Z,45.05
2022-08-22T09:38:19.746Z,44.92
2022-08-22T09:43:34.429Z,44.92
2022-08-22T09:48:49.415Z,45.47
2022-08-22T09:54:15.775Z,44.92
2022-08-22T09:59:26.698Z,45.17
2022-08-22T10:04:44.247Z,44.10
2022-08-22T10:10:02.713Z,45.00
2022-08-22T10:15:18.991Z,44.70
2022-08-22T10:20:30.842Z,44.85
2022-08-22T10:25:41.773Z,45.22
2022-08-22T10:31:05.445Z,44.78
2022-08-22T10:36:13.446Z,46.00
2022-08-22T10:41:36.763Z,44.97
2022-08-22T10:46:44.651Z,44.42
2022-08-22T10:51:52.836Z,45.10
2022-08-22T10:57:09.462Z,45.03
2022-08-22T11:02:31.888Z,45.47
2022-08-22T11:07:48.762Z,46.22
2022-08-22T11:13:12.121Z,46.17
2022-08-22T11:18:27.752Z,45.42
2022-08-22T11:23:57.380Z,46.20
2022-08-22T11:29:19.966Z,45.45
2022-08-22T11:34:39.626Z,45.33
2022-08-22T11:39:50.347Z,45.38
2022-08-22T11:44:58.533Z,45.42
2022-08-22T11:50:14.613Z,45.95
2022-08-22T11:55:32.573Z,45.90
2022-08-22T12:00:57.402Z,46.40
2022-08-22T12:06:08.261Z,49.25
2022-08-22T12:11:15.192Z,45.60
2022-08-22T12:16:27.208Z,46.05
2022-08-22T12:21:56.485Z,46.33
2022-08-22T12:27:28.893Z,45.88
2022-08-22T12:33:10.577Z,45.83
2022-08-22T12:38:36.077Z,45.83
2022-08-22T12:43:51.023Z,45.58
2022-08-22T12:49:21.234Z,46.00
2022-08-22T12:54:48.263Z,46.05
2022-08-22T12:59:55.280Z,46.08
2022-08-22T13:05:09.538Z,46.50
2022-08-22T13:10:38.770Z,46.08
2022-08-22T13:15:53.537Z,45.90
2022-08-22T13:21:00.119Z,46.92
2022-08-22T13:26:10.364Z,46.70
2022-08-22T13:31:24.853Z,46.70
2022-08-22T13:36:29.527Z,46.90
2022-08-22T13:41:44.237Z,46.97
2022-08-22T13:47:11.139Z,47.88
2022-08-22T13:52:29.731Z,46.92
2022-08-22T13:57:38.386Z,47.00
2022-08-22T14:02:56.873Z,47.85
2022-08-22T14:08:12.928Z,46.85
2022-08-22T14:13:38.410Z,46.47
2022-08-22T14:18:48.410Z,46.35
2022-08-22T14:23:53.033Z,46.45
2022-08-22T14:29:01.517Z,46.33
2022-08-22T14:34:10.448Z,46.03
2022-08-22T14:39:27.906Z,46.47
2022-08-22T14:44:39.189Z,46.22
2022-08-22T14:49:52.699Z,46.45
2022-08-22T14:55:13.087Z,46.90
2022-08-22T15:00:28.668Z,46.53
2022-08-22T15:05:44.956Z,46.42
2022-08-22T15:10:49.405Z,47.08
2022-08-22T15:15:56.010Z,48.65
2022-08-22T15:21:08.599Z,47.25
2022-08-22T15:26:20.772Z,46.08
2022-08-22T15:31:33.752Z,47.25
2022-08-22T15:37:29.558Z,47.80
2022-08-22T15:42:40.317Z,47.53
2022-08-22T15:47:55.113Z,46.65
2022-08-22T15:53:15.701Z,46.33
2022-08-22T15:58:24.352Z,46.40
2022-08-22T16:03:33.439Z,46.47
2022-08-22T16:08:49.675Z,46.40
2022-08-22T16:14:18.911Z,46.60
2022-08-22T16:19:34.551Z,46.65
2022-08-22T16:25:01.481Z,47.65
2022-08-22T16:30:14.650Z,47.05
2022-08-22T16:35:50.885Z,48.38
2022-08-22T16:40:55.444Z,47.40
2022-08-22T16:45:59.443Z,46.45
2022-08-22T16:51:12.016Z,46.40
2022-08-22T16:56:28.548Z,46.65
2022-08-22T17:02:14.655Z,46.78
2022-08-22T17:07:32.182Z,46.85
2022-08-22T17:12:50.601Z,47.42
2022-08-22T17:18:12.170Z,47.05
2022-08-22T17:23:23.602Z,47.10
2022-08-22T17:28:39.658Z,46.38
2022-08-22T17:34:02.936Z,46.58
2022-08-22T17:39:34.634Z,46.78
2022-08-22T17:44:47.984Z,46.95
2022-08-22T17:49:57.855Z,47.03
2022-08-22T17:55:17.129Z,47.00
2022-08-22T18:00:32.836Z,46.67
2022-08-22T18:05:40.624Z,46.67
2022-08-22T18:10:48.685Z,46.65
2022-08-22T18:15:57.473Z,46.92
2022-08-22T18:21:07.475Z,46.83
2022-08-22T18:26:27.625Z,46.50
2022-08-22T18:31:39.863Z,46.17
2022-08-22T18:36:54.860Z,46.17
2022-08-22T18:42:05.300Z,46.53
2022-08-22T18:47:21.796Z,46.20
2022-08-22T18:52:55.911Z,47.03
2022-08-22T18:58:27.622Z,46.00
2022-08-22T19:03:47.745Z,46.05
2022-08-22T19:09:28.478Z,46.13
2022-08-22T19:14:51.107Z,46.58
2022-08-22T19:20:19.508Z,47.05
2022-08-22T19:25:26.499Z,46.88
2022-08-22T19:30:46.886Z,47.13
2022-08-22T19:36:29.348Z,46.15
2022-08-22T19:41:45.341Z,46.67
2022-08-22T19:47:07.617Z,46.38
2022-08-22T19:52:32.065Z,46.10
2022-08-22T19:57:43.104Z,45.75
2022-08-22T20:03:02.708Z,47.40
2022-08-22T20:08:31.129Z,46.45
2022-08-22T20:13:36.955Z,45.88
2022-08-22T20:19:16.101Z,46.00
2022-08-22T20:24:27.588Z,45.53
2022-08-22T20:29:37.515Z,45.75
2022-08-22T20:34:40.624Z,46.13
2022-08-22T20:39:58.651Z,46.05
2022-08-22T20:45:03.844Z,45.50
2022-08-22T20:50:18.835Z,45.92
2022-08-22T20:55:31.747Z,46.30
2022-08-22T21:00:41.071Z,45.47
2022-08-22T21:05:46.369Z,45.97
2022-08-22T21:11:18.114Z,45.63
2022-08-22T21:16:31.241Z,45.88
2022-08-22T21:21:36.327Z,45.53
2022-08-22T21:26:47.585Z,45.70
2022-08-22T21:31:57.833Z,45.67
2022-08-22T21:37:13.461Z,44.80
2022-08-22T21:42:25.078Z,45.50
2022-08-22T21:47:32.645Z,45.53
2022-08-22T21:52:37.495Z,45.30
2022-08-22T21:57:41.875Z,45.63
2022-08-22T22:02:44.827Z,46.53
2022-08-22T22:07:48.819Z,45.55
2022-08-22T22:12:56.529Z,46.42
2022-08-22T22:18:00.193Z,45.67
2022-08-22T22:23:04.657Z,44.97
2022-08-22T22:28:12.157Z,45.90
2022-08-22T22:33:15.314Z,45.50
2022-08-22T22:38:23.753Z,45.53
2022-08-22T22:43:28.500Z,45.30
2022-08-22T22:48:31.464Z,45.95
2022-08-22T22:53:40.321Z,45.30
2022-08-22T22:58:47.587Z,45.42
2022-08-22T23:03:55.101Z,45.90
2022-08-22T23:08:59.019Z,45.53
2022-08-22T23:14:03.802Z,45.38
2022-08-22T23:19:09.607Z,45.47
2022-08-22T23:24:14.479Z,45.55
2022-08-22T23:29:19.098Z,46.15
2022-08-22T23:34:24.154Z,45.38
2022-08-22T23:39:29.609Z,45.40
2022-08-22T23:44:36.125Z,45.13
2022-08-22T23:49:40.110Z,46.50
2022-08-22T23:54:43.219Z,45.40
2022-08-22T23:59:57.662Z,46.13
